Time;durP1;ratioP1;P1;durP2;ratioP2;P2;SDS_P1;SDS_P2;PMS_P1;PMS_P2;Temp;Humidity;BMP_temperature;BMP_pressure;BME280_temperature;BME280_humidity;BME280_pressure;Samples;Min_cycle;Max_cycle;Signal;HPM_P1;HPM_P2
2023/09/12 00:02:25;;;;;;;13.37;6.87;;;;;;;;;;5038049;28;20423;-73
2023/09/12 00:04:50;;;;;;;19.83;6.83;;;;;;;;;;5032702;28;20065;-73
2023/09/12 00:07:15;;;;;;;10.93;6.32;;;;;;;;;;5030618;28;20274;-73
2023/09/12 00:09:41;;;;;;;16.67;7.28;;;;;;;;;;5032017;28;20022;-73
2023/09/12 00:12:06;;;;;;;15.63;6.87;;;;;;;;;;5026514;28;20483;-73
2023/09/12 00:14:31;;;;;;;8.77;6.13;;;;;;;;;;5031053;28;20268;-73
2023/09/12 00:16:56;;;;;;;13.17;5.80;;;;;;;;;;5031202;28;20546;-73
2023/09/12 00:19:21;;;;;;;8.00;5.17;;;;;;;;;;5032049;28;20292;-73
2023/09/12 00:21:47;;;;;;;20.20;6.60;;;;;;;;;;5029550;28;20021;-74
2023/09/12 00:24:12;;;;;;;10.82;6.00;;;;;;;;;;5031370;28;20147;-73
2023/09/12 00:26:37;;;;;;;7.83;5.07;;;;;;;;;;5031739;28;20067;-73
2023/09/12 00:29:02;;;;;;;11.80;6.50;;;;;;;;;;5028624;28;20363;-73
2023/09/12 00:31:27;;;;;;;11.50;5.53;;;;;;;;;;5031747;28;20036;-73
2023/09/12 00:33:53;;;;;;;11.00;4.57;;;;;;;;;;5023612;28;20700;-73
2023/09/12 00:36:18;;;;;;;19.23;4.93;;;;;;;;;;5026356;28;20265;-73
2023/09/12 00:38:43;;;;;;;7.57;4.35;;;;;;;;;;5032389;28;20586;-73
2023/09/12 00:41:08;;;;;;;13.50;5.23;;;;;;;;;;5031434;28;20024;-73
2023/09/12 00:43:33;;;;;;;9.45;4.75;;;;;;;;;;5031044;28;20049;-73
2023/09/12 00:45:59;;;;;;;12.53;4.40;;;;;;;;;;5030795;28;20014;-73
2023/09/12 00:48:24;;;;;;;8.00;4.47;;;;;;;;;;5033770;28;20486;-73
2023/09/12 00:50:50;;;;;;;7.78;4.38;;;;;;;;;;5025487;28;20033;-73
2023/09/12 00:53:15;;;;;;;6.35;3.92;;;;;;;;;;5030850;28;20013;-73
2023/09/12 00:55:45;;;;;;;10.40;4.43;;;;;;;;;;5030839;28;20036;-73
2023/09/12 00:58:10;;;;;;;11.55;4.63;;;;;;;;;;5029786;28;20034;-73
2023/09/12 01:00:35;;;;;;;7.50;4.03;;;;;;;;;;5031930;28;20037;-73
2023/09/12 01:03:00;;;;;;;9.35;3.58;;;;;;;;;;5027480;28;20022;-73
2023/09/12 01:05:26;;;;;;;7.80;4.50;;;;;;;;;;5027483;28;20096;-73
2023/09/12 01:07:52;;;;;;;7.05;4.53;;;;;;;;;;5030573;28;20032;-73
2023/09/12 01:10:17;;;;;;;8.65;5.18;;;;;;;;;;5027150;28;20025;-73
2023/09/12 01:12:42;;;;;;;9.60;4.83;;;;;;;;;;5029504;28;20028;-73
2023/09/12 01:15:13;;;;;;;9.65;4.25;;;;;;;;;;5030982;28;20256;-73
2023/09/12 01:17:39;;;;;;;8.00;4.15;;;;;;;;;;5029604;28;20060;-73
2023/09/12 01:20:06;;;;;;;6.32;3.75;;;;;;;;;;5025615;28;20056;-73
2023/09/12 01:22:49;;;;;;;8.88;3.97;;;;;;;;;;5027595;28;20022;-73
2023/09/12 01:25:30;;;;;;;9.15;4.25;;;;;;;;;;5024224;28;20151;-73
2023/09/12 01:27:58;;;;;;;9.35;4.50;;;;;;;;;;5028139;28;20438;-73
2023/09/12 01:30:25;;;;;;;8.18;4.25;;;;;;;;;;5031532;28;20507;-73
2023/09/12 01:32:50;;;;;;;6.13;3.47;;;;;;;;;;5029640;28;20044;-73
2023/09/12 01:35:15;;;;;;;8.38;4.05;;;;;;;;;;5029969;28;20025;-73
2023/09/12 01:37:40;;;;;;;9.33;3.87;;;;;;;;;;5030869;28;20026;-73
2023/09/12 01:40:07;;;;;;;10.90;3.93;;;;;;;;;;5035721;28;20403;-73
2023/09/12 01:42:37;;;;;;;6.00;3.65;;;;;;;;;;5029689;28;20280;-73
2023/09/12 01:45:03;;;;;;;8.68;4.22;;;;;;;;;;5022736;28;20068;-73
2023/09/12 01:47:28;;;;;;;8.60;3.70;;;;;;;;;;5031232;28;20436;-73
2023/09/12 01:49:55;;;;;;;13.13;4.15;;;;;;;;;;5026632;28;20033;-73
2023/09/12 01:52:21;;;;;;;13.45;4.00;;;;;;;;;;5034167;28;20025;-73
2023/09/12 01:54:47;;;;;;;8.77;3.92;;;;;;;;;;5025044;28;20034;-73
2023/09/12 01:57:13;;;;;;;8.57;4.05;;;;;;;;;;5031807;28;20480;-73
2023/09/12 01:59:38;;;;;;;6.47;3.50;;;;;;;;;;5025715;28;20036;-73
2023/09/12 02:02:03;;;;;;;7.50;4.15;;;;;;;;;;5030314;28;20020;-73
2023/09/12 02:04:29;;;;;;;8.50;3.73;;;;;;;;;;5030641;28;20108;-73
2023/09/12 02:06:54;;;;;;;8.27;3.93;;;;;;;;;;5029256;28;20626;-73
2023/09/12 02:09:19;;;;;;;11.35;4.40;;;;;;;;;;5032196;28;20282;-73
2023/09/12 02:11:44;;;;;;;9.68;4.10;;;;;;;;;;5031270;28;20026;-73
2023/09/12 02:14:10;;;;;;;9.70;3.75;;;;;;;;;;5029377;28;20120;-73
2023/09/12 02:16:37;;;;;;;7.50;3.70;;;;;;;;;;5027636;28;20511;-73
2023/09/12 02:19:02;;;;;;;7.43;3.67;;;;;;;;;;5022155;28;20337;-73
2023/09/12 02:21:27;;;;;;;7.32;3.38;;;;;;;;;;5030108;28;20017;-73
2023/09/12 02:23:52;;;;;;;10.93;4.50;;;;;;;;;;5029115;28;20030;-73
2023/09/12 02:26:18;;;;;;;5.63;3.65;;;;;;;;;;5025564;28;20360;-73
2023/09/12 02:28:44;;;;;;;7.87;3.97;;;;;;;;;;5027663;28;20029;-73
2023/09/12 02:31:11;;;;;;;10.13;3.67;;;;;;;;;;5030074;28;20072;-73
2023/09/12 02:33:37;;;;;;;11.13;3.97;;;;;;;;;;5023507;28;20014;-73
2023/09/12 02:36:02;;;;;;;6.15;3.78;;;;;;;;;;5032705;28;20502;-73
2023/09/12 02:38:27;;;;;;;8.63;3.92;;;;;;;;;;5029789;28;20446;-73
2023/09/12 02:40:53;;;;;;;6.27;3.40;;;;;;;;;;5028133;28;20033;-73
2023/09/12 02:43:18;;;;;;;8.77;4.18;;;;;;;;;;5028949;28;20447;-73
2023/09/12 02:45:43;;;;;;;11.17;4.57;;;;;;;;;;5029751;28;20118;-73
2023/09/12 02:48:08;;;;;;;9.00;5.05;;;;;;;;;;5025178;28;20781;-73
2023/09/12 02:50:33;;;;;;;7.10;4.30;;;;;;;;;;5028814;28;20042;-73
2023/09/12 02:52:58;;;;;;;7.03;4.07;;;;;;;;;;5034327;28;20047;-73
2023/09/12 02:55:24;;;;;;;7.57;4.00;;;;;;;;;;5028522;28;20034;-73
2023/09/12 02:57:49;;;;;;;7.00;4.50;;;;;;;;;;5029351;28;20256;-73
2023/09/12 03:00:14;;;;;;;10.23;3.97;;;;;;;;;;5028739;28;20683;-73
2023/09/12 03:02:39;;;;;;;9.55;4.45;;;;;;;;;;5027463;28;20777;-73
2023/09/12 03:05:05;;;;;;;7.87;4.40;;;;;;;;;;5033346;28;20025;-73
2023/09/12 03:07:30;;;;;;;9.50;5.20;;;;;;;;;;5033321;28;20723;-73
2023/09/12 03:09:55;;;;;;;9.20;4.80;;;;;;;;;;5027578;28;20027;-73
2023/09/12 03:12:20;;;;;;;8.77;4.65;;;;;;;;;;5034198;28;20035;-73
2023/09/12 03:14:46;;;;;;;13.50;4.63;;;;;;;;;;5029445;28;20020;-73
2023/09/12 03:17:11;;;;;;;6.80;4.13;;;;;;;;;;5034112;28;20060;-73
2023/09/12 03:19:36;;;;;;;9.47;4.80;;;;;;;;;;5031774;28;20310;-73
2023/09/12 03:22:01;;;;;;;9.03;4.27;;;;;;;;;;5032688;28;20028;-73
2023/09/12 03:24:28;;;;;;;14.70;4.50;;;;;;;;;;5022441;28;20326;-73
2023/09/12 03:26:54;;;;;;;9.85;4.63;;;;;;;;;;5030087;28;20466;-73
2023/09/12 03:29:19;;;;;;;10.02;5.00;;;;;;;;;;5033205;28;20013;-73
2023/09/12 03:31:44;;;;;;;7.47;4.63;;;;;;;;;;5032784;28;20059;-73
2023/09/12 03:34:09;;;;;;;6.88;4.45;;;;;;;;;;5036405;28;20290;-73
2023/09/12 03:36:34;;;;;;;8.17;4.77;;;;;;;;;;5033113;28;20060;-73
2023/09/12 03:38:59;;;;;;;13.13;5.00;;;;;;;;;;5026572;28;20488;-73
2023/09/12 03:41:25;;;;;;;8.87;4.70;;;;;;;;;;5035857;28;20315;-73
2023/09/12 03:43:54;;;;;;;9.48;5.18;;;;;;;;;;5035056;28;20266;-73
2023/09/12 03:46:19;;;;;;;11.40;6.05;;;;;;;;;;5032158;28;20013;-73
2023/09/12 03:48:45;;;;;;;13.30;5.70;;;;;;;;;;5032396;28;20026;-73
2023/09/12 03:51:11;;;;;;;10.57;5.60;;;;;;;;;;5032403;28;20283;-73
2023/09/12 03:53:36;;;;;;;11.60;5.03;;;;;;;;;;5026127;28;20018;-73
2023/09/12 03:56:01;;;;;;;9.55;5.25;;;;;;;;;;5026627;28;20025;-73
2023/09/12 03:58:26;;;;;;;10.37;5.37;;;;;;;;;;5031354;28;20033;-73
2023/09/12 04:00:51;;;;;;;8.80;5.57;;;;;;;;;;5030995;28;20025;-73
2023/09/12 04:03:17;;;;;;;10.13;5.43;;;;;;;;;;5028410;28;20025;-73
2023/09/12 04:05:42;;;;;;;10.95;5.55;;;;;;;;;;5034591;28;20456;-73
2023/09/12 04:08:07;;;;;;;12.47;5.97;;;;;;;;;;5030607;28;20075;-73
2023/09/12 04:10:32;;;;;;;8.03;5.53;;;;;;;;;;5031828;28;20257;-73
2023/09/12 04:12:57;;;;;;;8.47;5.40;;;;;;;;;;5034615;28;20272;-73
2023/09/12 04:15:23;;;;;;;12.40;7.00;;;;;;;;;;5032408;28;20390;-73
2023/09/12 04:17:48;;;;;;;7.82;5.28;;;;;;;;;;5031030;28;20280;-73
2023/09/12 04:20:16;;;;;;;17.70;5.43;;;;;;;;;;5031231;28;20029;-73
2023/09/12 04:22:42;;;;;;;11.90;5.72;;;;;;;;;;5033188;28;20128;-73
2023/09/12 04:25:07;;;;;;;9.82;4.97;;;;;;;;;;5031343;28;20526;-73
2023/09/12 04:27:34;;;;;;;8.88;4.78;;;;;;;;;;5037173;28;20437;-73
2023/09/12 04:29:59;;;;;;;10.70;5.68;;;;;;;;;;5031177;28;20018;-73
2023/09/12 04:32:24;;;;;;;13.90;5.97;;;;;;;;;;5030794;28;20112;-73
2023/09/12 04:34:49;;;;;;;9.47;5.40;;;;;;;;;;5033610;28;20607;-73
2023/09/12 04:37:15;;;;;;;11.93;6.43;;;;;;;;;;5030220;28;20762;-73
2023/09/12 04:39:40;;;;;;;11.68;5.20;;;;;;;;;;5030432;28;20021;-73
2023/09/12 04:42:05;;;;;;;9.17;5.77;;;;;;;;;;5030344;28;20021;-73
2023/09/12 04:44:40;;;;;;;14.65;5.70;;;;;;;;;;5031079;28;20486;-73
2023/09/12 04:47:05;;;;;;;10.20;5.25;;;;;;;;;;5029912;28;20021;-73
2023/09/12 04:49:30;;;;;;;9.50;5.63;;;;;;;;;;5033491;28;20467;-73
2023/09/12 04:51:56;;;;;;;10.25;5.32;;;;;;;;;;5030714;28;20280;-73
2023/09/12 04:54:21;;;;;;;14.20;5.63;;;;;;;;;;5030653;28;20526;-73
2023/09/12 04:56:47;;;;;;;8.47;5.27;;;;;;;;;;5030697;28;20608;-73
2023/09/12 04:59:12;;;;;;;11.35;5.35;;;;;;;;;;5019049;28;20026;-72
2023/09/12 05:01:37;;;;;;;10.40;5.23;;;;;;;;;;5030899;28;20032;-73
2023/09/12 05:04:03;;;;;;;12.53;4.77;;;;;;;;;;5030278;28;20021;-73
2023/09/12 05:06:28;;;;;;;11.25;4.70;;;;;;;;;;5035120;28;20047;-73
2023/09/12 05:08:53;;;;;;;8.63;4.55;;;;;;;;;;5032026;28;20387;-73
2023/09/12 05:11:18;;;;;;;10.75;4.85;;;;;;;;;;5030894;28;20110;-73
2023/09/12 05:13:44;;;;;;;11.47;5.50;;;;;;;;;;5028510;28;20140;-73
2023/09/12 05:16:09;;;;;;;11.27;5.03;;;;;;;;;;5030987;28;20033;-73
2023/09/12 05:18:34;;;;;;;8.40;4.70;;;;;;;;;;5030782;28;20264;-73
2023/09/12 05:20:59;;;;;;;10.97;5.33;;;;;;;;;;5030689;28;20280;-73
2023/09/12 05:23:24;;;;;;;8.00;4.60;;;;;;;;;;5029220;28;20359;-73
2023/09/12 05:25:50;;;;;;;8.87;4.87;;;;;;;;;;5025321;28;20755;-73
2023/09/12 05:28:15;;;;;;;11.40;6.10;;;;;;;;;;5027483;28;20275;-73
2023/09/12 05:30:41;;;;;;;12.82;5.00;;;;;;;;;;5021598;28;20017;-73
2023/09/12 05:33:06;;;;;;;10.18;5.30;;;;;;;;;;5022909;28;20036;-73
2023/09/12 05:35:32;;;;;;;12.70;5.60;;;;;;;;;;5029268;28;20028;-73
2023/09/12 05:37:57;;;;;;;12.00;4.87;;;;;;;;;;5023499;28;20287;-73
2023/09/12 05:40:22;;;;;;;10.47;5.93;;;;;;;;;;5026304;28;20683;-73
2023/09/12 05:42:47;;;;;;;16.23;5.82;;;;;;;;;;5025827;28;20108;-73
2023/09/12 05:45:12;;;;;;;12.73;5.20;;;;;;;;;;5026773;28;20033;-73
2023/09/12 05:47:38;;;;;;;13.95;6.03;;;;;;;;;;5022877;28;20044;-73
2023/09/12 05:50:06;;;;;;;8.50;4.80;;;;;;;;;;5024740;28;20125;-73
2023/09/12 05:52:31;;;;;;;11.50;5.53;;;;;;;;;;5020143;28;20036;-73
2023/09/12 05:54:56;;;;;;;15.30;6.10;;;;;;;;;;5029115;28;20033;-73
2023/09/12 05:57:22;;;;;;;13.47;6.27;;;;;;;;;;5026254;28;20276;-73
2023/09/12 05:59:47;;;;;;;14.77;5.97;;;;;;;;;;5033682;28;20361;-73
2023/09/12 06:02:12;;;;;;;13.50;6.85;;;;;;;;;;5022623;28;20973;-74
2023/09/12 06:04:38;;;;;;;16.03;7.93;;;;;;;;;;5027195;28;20026;-74
2023/09/12 06:07:03;;;;;;;13.23;6.37;;;;;;;;;;5029364;28;20470;-74
2023/09/12 06:09:28;;;;;;;12.05;6.55;;;;;;;;;;5033347;28;20037;-74
2023/09/12 06:11:54;;;;;;;16.33;6.22;;;;;;;;;;5025431;28;20622;-74
2023/09/12 06:14:19;;;;;;;12.18;5.63;;;;;;;;;;5024278;28;20471;-74
2023/09/12 06:16:44;;;;;;;11.35;5.40;;;;;;;;;;5022175;28;20033;-74
2023/09/12 06:19:09;;;;;;;12.77;6.23;;;;;;;;;;5028575;28;20034;-74
2023/09/12 06:21:34;;;;;;;11.60;6.90;;;;;;;;;;5022885;28;20014;-74
2023/09/12 06:24:09;;;;;;;14.57;6.47;;;;;;;;;;5027952;28;20772;-74
2023/09/12 06:26:35;;;;;;;16.88;6.38;;;;;;;;;;5030527;28;20256;-74
2023/09/12 06:29:00;;;;;;;15.73;6.93;;;;;;;;;;5027076;28;20039;-73
2023/09/12 06:31:25;;;;;;;18.83;8.23;;;;;;;;;;5029264;28;20984;-73
2023/09/12 06:33:50;;;;;;;27.73;10.37;;;;;;;;;;5021240;28;20283;-73
2023/09/12 06:36:15;;;;;;;24.40;11.27;;;;;;;;;;5027110;28;20040;-73
2023/09/12 06:38:40;;;;;;;29.10;13.00;;;;;;;;;;5035981;28;20743;-71
2023/09/12 06:41:06;;;;;;;21.42;12.32;;;;;;;;;;5034875;28;20014;-71
2023/09/12 06:43:31;;;;;;;22.67;12.37;;;;;;;;;;5033705;28;20451;-71
2023/09/12 06:45:56;;;;;;;19.50;12.07;;;;;;;;;;5039497;28;20029;-71
2023/09/12 06:48:21;;;;;;;20.27;10.93;;;;;;;;;;5034386;28;20108;-71
2023/09/12 06:50:46;;;;;;;29.00;11.23;;;;;;;;;;5033582;28;20330;-71
2023/09/12 06:53:12;;;;;;;17.57;10.13;;;;;;;;;;5032882;28;20160;-71
2023/09/12 06:55:37;;;;;;;23.58;11.00;;;;;;;;;;5032110;28;20018;-71
2023/09/12 06:58:03;;;;;;;21.40;10.48;;;;;;;;;;5031876;28;20065;-73
2023/09/12 07:00:28;;;;;;;18.55;8.38;;;;;;;;;;5036103;28;20424;-73
2023/09/12 07:02:53;;;;;;;17.00;8.20;;;;;;;;;;5033965;28;20637;-72
2023/09/12 07:05:19;;;;;;;14.38;7.97;;;;;;;;;;5036529;28;20014;-72
2023/09/12 07:07:44;;;;;;;13.17;7.57;;;;;;;;;;5033057;28;20028;-72
2023/09/12 07:10:09;;;;;;;17.67;7.50;;;;;;;;;;5025312;28;20018;-73
2023/09/12 07:12:34;;;;;;;14.48;8.00;;;;;;;;;;5033000;28;20083;-72
2023/09/12 07:14:59;;;;;;;23.45;7.93;;;;;;;;;;5029195;28;20042;-72
2023/09/12 07:17:27;;;;;;;15.87;6.73;;;;;;;;;;5031858;28;20105;-72
2023/09/12 07:19:52;;;;;;;17.10;6.88;;;;;;;;;;5033527;28;20279;-72
2023/09/12 07:22:17;;;;;;;15.55;6.82;;;;;;;;;;5029683;28;20017;-72
2023/09/12 07:24:43;;;;;;;14.80;6.95;;;;;;;;;;5032054;28;20438;-72
2023/09/12 07:27:08;;;;;;;12.23;6.43;;;;;;;;;;5033768;28;20561;-72
2023/09/12 07:29:33;;;;;;;16.08;6.43;;;;;;;;;;5034779;28;20337;-72
2023/09/12 07:31:58;;;;;;;15.93;6.80;;;;;;;;;;5035247;28;20023;-72
2023/09/12 07:34:24;;;;;;;9.52;5.90;;;;;;;;;;5032867;28;20631;-72
2023/09/12 07:36:51;;;;;;;8.53;5.43;;;;;;;;;;5033573;28;20026;-72
2023/09/12 07:39:16;;;;;;;14.80;5.47;;;;;;;;;;5033693;28;20774;-72
2023/09/12 07:41:41;;;;;;;11.53;5.70;;;;;;;;;;5034711;28;20025;-72
2023/09/12 07:44:10;;;;;;;13.43;5.17;;;;;;;;;;5032518;28;20275;-72
2023/09/12 07:46:35;;;;;;;8.70;5.25;;;;;;;;;;5034325;28;20013;-72
2023/09/12 07:49:01;;;;;;;10.73;5.00;;;;;;;;;;5038118;28;20033;-72
2023/09/12 07:51:26;;;;;;;12.33;6.40;;;;;;;;;;5032157;28;20087;-73
2023/09/12 07:53:51;;;;;;;11.37;5.07;;;;;;;;;;5033342;28;20276;-73
2023/09/12 07:56:16;;;;;;;14.57;5.53;;;;;;;;;;5032702;28;20423;-73
2023/09/12 07:58:41;;;;;;;10.50;5.00;;;;;;;;;;5032712;28;20096;-73
2023/09/12 08:01:08;;;;;;;7.00;4.67;;;;;;;;;;5035923;28;20280;-73
2023/09/12 08:03:33;;;;;;;11.18;4.93;;;;;;;;;;5038939;28;20368;-73
2023/09/12 08:05:59;;;;;;;9.27;4.30;;;;;;;;;;5032388;28;20079;-73
2023/09/12 08:08:24;;;;;;;8.75;4.30;;;;;;;;;;5035328;28;20051;-73
2023/09/12 08:10:49;;;;;;;7.63;4.93;;;;;;;;;;5034468;28;20461;-73
2023/09/12 08:13:14;;;;;;;9.20;4.77;;;;;;;;;;5027853;28;20022;-73
2023/09/12 08:15:39;;;;;;;8.52;4.85;;;;;;;;;;5032125;28;20053;-73
2023/09/12 08:18:05;;;;;;;9.23;4.60;;;;;;;;;;5030780;28;20025;-73
2023/09/12 08:20:30;;;;;;;6.18;4.25;;;;;;;;;;5031205;28;20280;-73
2023/09/12 08:22:55;;;;;;;10.40;4.80;;;;;;;;;;5037474;28;20021;-73
2023/09/12 08:25:20;;;;;;;10.50;5.03;;;;;;;;;;5032319;28;20492;-73
2023/09/12 08:27:45;;;;;;;8.00;5.37;;;;;;;;;;5030860;28;20218;-73
2023/09/12 08:30:12;;;;;;;12.50;5.23;;;;;;;;;;5030669;28;20286;-73
2023/09/12 08:32:39;;;;;;;10.75;5.38;;;;;;;;;;5031974;28;20529;-73
2023/09/12 08:35:04;;;;;;;10.82;5.68;;;;;;;;;;5032518;28;20105;-73
2023/09/12 08:37:30;;;;;;;7.32;5.30;;;;;;;;;;5031469;28;20384;-73
2023/09/12 08:39:57;;;;;;;7.87;5.20;;;;;;;;;;5036461;28;20017;-73
2023/09/12 08:42:23;;;;;;;7.53;4.40;;;;;;;;;;5033217;28;20558;-73
2023/09/12 08:44:48;;;;;;;10.82;4.55;;;;;;;;;;5031717;28;20033;-73
2023/09/12 08:47:14;;;;;;;11.87;5.63;;;;;;;;;;5030640;28;20385;-73
2023/09/12 08:49:42;;;;;;;9.57;5.18;;;;;;;;;;5032628;28;20638;-72
2023/09/12 08:52:07;;;;;;;11.10;5.22;;;;;;;;;;5035365;28;20013;-73
2023/09/12 08:54:32;;;;;;;9.30;5.53;;;;;;;;;;5032845;28;20568;-72
2023/09/12 08:56:59;;;;;;;12.57;6.07;;;;;;;;;;5035008;28;20709;-72
2023/09/12 08:59:24;;;;;;;16.45;5.75;;;;;;;;;;5028222;28;20282;-72
2023/09/12 09:01:52;;;;;;;17.10;5.78;;;;;;;;;;5029636;28;20022;-73
2023/09/12 09:04:18;;;;;;;15.25;5.72;;;;;;;;;;5033108;28;20082;-72
2023/09/12 09:06:44;;;;;;;12.70;6.82;;;;;;;;;;5034817;28;20022;-73
2023/09/12 09:09:09;;;;;;;9.57;5.72;;;;;;;;;;5030991;28;20029;-73
2023/09/12 09:11:34;;;;;;;9.93;6.68;;;;;;;;;;5030138;28;20061;-73
2023/09/12 09:14:02;;;;;;;15.97;7.77;;;;;;;;;;5027956;28;20946;-72
2023/09/12 09:16:28;;;;;;;13.25;6.32;;;;;;;;;;5030746;28;20735;-73
2023/09/12 09:18:54;;;;;;;8.95;6.28;;;;;;;;;;5022772;28;21341;-72
2023/09/12 09:21:23;;;;;;;7.68;5.38;;;;;;;;;;5028549;28;20013;-73
2023/09/12 09:23:48;;;;;;;11.57;5.63;;;;;;;;;;5030160;28;20025;-73
2023/09/12 09:26:14;;;;;;;12.77;5.63;;;;;;;;;;5028578;28;20030;-73
2023/09/12 09:28:39;;;;;;;15.07;6.10;;;;;;;;;;5034158;28;20052;-72
2023/09/12 09:31:10;;;;;;;16.33;6.05;;;;;;;;;;5024635;28;20275;-72
2023/09/12 09:33:36;;;;;;;11.65;5.40;;;;;;;;;;5029332;28;20029;-72
2023/09/12 09:36:05;;;;;;;10.32;5.40;;;;;;;;;;5029327;28;20041;-73
2023/09/12 09:38:30;;;;;;;11.23;6.23;;;;;;;;;;5026621;28;20045;-72
2023/09/12 09:40:55;;;;;;;13.45;6.60;;;;;;;;;;5024435;28;20032;-72
2023/09/12 09:43:21;;;;;;;14.43;6.32;;;;;;;;;;5033815;28;20472;-72
2023/09/12 09:45:47;;;;;;;10.75;6.00;;;;;;;;;;5028409;28;20223;-72
2023/09/12 09:48:18;;;;;;;15.88;7.05;;;;;;;;;;5027002;28;20041;-72
2023/09/12 09:50:43;;;;;;;12.25;7.32;;;;;;;;;;5028316;28;20037;-72
2023/09/12 09:53:10;;;;;;;9.63;6.63;;;;;;;;;;5028372;28;20365;-72
2023/09/12 09:55:35;;;;;;;12.63;6.53;;;;;;;;;;5025151;28;20326;-72
2023/09/12 09:58:00;;;;;;;10.38;6.78;;;;;;;;;;5027309;28;20233;-72
2023/09/12 10:00:27;;;;;;;17.33;6.13;;;;;;;;;;5025018;28;20393;-72
2023/09/12 10:02:53;;;;;;;12.88;7.25;;;;;;;;;;5028661;28;20021;-72
2023/09/12 10:05:18;;;;;;;7.53;5.07;;;;;;;;;;5025252;28;20028;-72
2023/09/12 10:07:46;;;;;;;10.50;5.28;;;;;;;;;;5026407;28;20028;-72
2023/09/12 10:10:12;;;;;;;12.80;4.35;;;;;;;;;;5023932;28;20029;-72
2023/09/12 10:12:41;;;;;;;6.90;4.88;;;;;;;;;;5024798;28;20037;-72
2023/09/12 10:15:07;;;;;;;13.27;4.53;;;;;;;;;;5024892;28;20555;-72
2023/09/12 10:17:36;;;;;;;7.25;4.82;;;;;;;;;;5029254;28;20120;-72
2023/09/12 10:20:04;;;;;;;9.95;5.47;;;;;;;;;;5021797;28;20571;-72
2023/09/12 10:22:32;;;;;;;11.10;4.90;;;;;;;;;;5025113;28;20041;-72
2023/09/12 10:24:57;;;;;;;6.40;4.80;;;;;;;;;;5028229;28;20109;-72
2023/09/12 10:27:24;;;;;;;10.52;5.53;;;;;;;;;;5033597;28;20096;-72
2023/09/12 10:29:52;;;;;;;8.77;4.65;;;;;;;;;;5027956;28;20013;-72
2023/09/12 10:32:18;;;;;;;6.75;4.75;;;;;;;;;;5022811;28;20432;-72
2023/09/12 10:34:45;;;;;;;11.95;4.88;;;;;;;;;;5025335;28;20031;-72
2023/09/12 10:37:11;;;;;;;9.95;5.10;;;;;;;;;;5025953;28;20111;-72
2023/09/12 10:39:37;;;;;;;8.40;4.40;;;;;;;;;;5031492;28;20021;-72
2023/09/12 10:42:04;;;;;;;11.13;6.32;;;;;;;;;;5029801;28;20180;-72
2023/09/12 10:44:30;;;;;;;8.52;5.78;;;;;;;;;;5029465;28;20025;-72
2023/09/12 10:46:57;;;;;;;10.88;5.47;;;;;;;;;;5028605;28;20032;-72
2023/09/12 10:49:23;;;;;;;9.25;5.10;;;;;;;;;;5028761;28;20025;-72
2023/09/12 10:51:49;;;;;;;8.57;4.75;;;;;;;;;;5028913;28;20017;-72
2023/09/12 10:54:23;;;;;;;11.48;4.75;;;;;;;;;;5021994;28;20302;-72
2023/09/12 10:57:02;;;;;;;8.57;4.18;;;;;;;;;;5023290;28;20026;-72
2023/09/12 10:59:31;;;;;;;12.48;5.78;;;;;;;;;;5028712;28;20017;-72
2023/09/12 11:02:16;;;;;;;13.80;5.85;;;;;;;;;;5028090;28;20089;-72
2023/09/12 11:04:41;;;;;;;10.93;5.72;;;;;;;;;;5029259;28;20504;-72
2023/09/12 11:07:26;;;;;;;9.70;5.23;;;;;;;;;;5029641;28;20034;-72
2023/09/12 11:10:11;;;;;;;15.25;5.65;;;;;;;;;;5031015;28;20405;-72
2023/09/12 11:12:37;;;;;;;12.18;5.43;;;;;;;;;;5026065;28;20029;-72
2023/09/12 11:15:06;;;;;;;11.57;5.57;;;;;;;;;;5028891;28;20116;-72
2023/09/12 11:17:36;;;;;;;12.48;6.10;;;;;;;;;;5033403;28;20263;-72
2023/09/12 11:20:04;;;;;;;8.70;5.40;;;;;;;;;;5029760;28;20558;-72
2023/09/12 11:22:34;;;;;;;8.63;4.18;;;;;;;;;;5024376;28;20095;-72
2023/09/12 11:25:05;;;;;;;7.03;4.65;;;;;;;;;;5028836;28;20024;-72
2023/09/12 11:27:31;;;;;;;10.38;5.05;;;;;;;;;;5032039;28;20024;-72
2023/09/12 11:30:03;;;;;;;7.50;4.80;;;;;;;;;;5032271;28;20070;-72
2023/09/12 11:32:32;;;;;;;13.32;5.72;;;;;;;;;;5032705;28;20511;-72
2023/09/12 11:34:58;;;;;;;10.88;5.78;;;;;;;;;;5031168;28;20487;-72
2023/09/12 11:37:27;;;;;;;12.38;5.57;;;;;;;;;;5036322;28;20380;-73
2023/09/12 11:39:53;;;;;;;11.63;5.82;;;;;;;;;;5028021;28;20164;-72
2023/09/12 11:42:19;;;;;;;18.65;5.40;;;;;;;;;;5030251;28;20104;-72
2023/09/12 11:44:47;;;;;;;7.68;5.05;;;;;;;;;;5032195;28;20480;-72
2023/09/12 11:47:12;;;;;;;9.48;5.05;;;;;;;;;;5029296;28;20128;-73
2023/09/12 11:49:39;;;;;;;12.32;5.18;;;;;;;;;;5034144;28;20101;-73
2023/09/12 11:52:08;;;;;;;8.23;5.53;;;;;;;;;;5031285;28;20041;-73
2023/09/12 11:54:33;;;;;;;10.60;5.15;;;;;;;;;;5033092;28;20495;-73
2023/09/12 11:56:59;;;;;;;8.47;5.03;;;;;;;;;;5037298;28;20025;-73
2023/09/12 11:59:26;;;;;;;6.95;4.93;;;;;;;;;;5031704;28;20517;-73
2023/09/12 12:01:51;;;;;;;14.48;5.85;;;;;;;;;;5025662;28;20067;-73
2023/09/12 12:04:17;;;;;;;8.68;6.03;;;;;;;;;;5026740;28;20092;-73
2023/09/12 12:06:43;;;;;;;14.00;5.77;;;;;;;;;;5031531;28;20028;-73
2023/09/12 12:09:09;;;;;;;17.00;5.85;;;;;;;;;;5032628;28;20276;-73
2023/09/12 12:11:34;;;;;;;10.02;4.80;;;;;;;;;;5031763;28;20369;-73
2023/09/12 12:14:08;;;;;;;12.27;5.33;;;;;;;;;;5032889;28;20141;-73
2023/09/12 12:16:34;;;;;;;19.67;6.68;;;;;;;;;;5030039;28;20358;-73
2023/09/12 12:18:59;;;;;;;13.13;5.28;;;;;;;;;;5032183;28;20108;-73
2023/09/12 12:21:25;;;;;;;9.73;5.83;;;;;;;;;;5033402;28;20414;-73
2023/09/12 12:24:00;;;;;;;10.40;5.45;;;;;;;;;;5033558;28;20603;-73
2023/09/12 12:26:26;;;;;;;11.77;5.93;;;;;;;;;;5032510;28;20013;-73
2023/09/12 12:28:52;;;;;;;9.05;5.93;;;;;;;;;;5029508;28;20018;-73
2023/09/12 12:31:17;;;;;;;13.95;5.53;;;;;;;;;;5025443;28;20029;-73
2023/09/12 12:33:47;;;;;;;10.67;5.10;;;;;;;;;;5038389;28;20025;-73
2023/09/12 12:36:12;;;;;;;9.52;5.47;;;;;;;;;;5031533;28;20619;-73
2023/09/12 12:38:39;;;;;;;9.60;4.55;;;;;;;;;;5031451;28;20027;-73
2023/09/12 12:41:04;;;;;;;10.45;5.03;;;;;;;;;;5032324;28;20492;-73
2023/09/12 12:43:30;;;;;;;8.20;5.25;;;;;;;;;;5033681;28;20060;-73
2023/09/12 12:45:56;;;;;;;9.35;5.50;;;;;;;;;;5031109;28;20083;-73
2023/09/12 12:48:31;;;;;;;18.15;5.85;;;;;;;;;;5029538;28;20048;-73
2023/09/12 12:50:56;;;;;;;8.30;5.20;;;;;;;;;;5038344;28;20074;-73
2023/09/12 12:53:40;;;;;;;15.57;4.80;;;;;;;;;;5033537;28;20021;-73
2023/09/12 12:56:06;;;;;;;9.43;4.75;;;;;;;;;;5031657;28;20045;-73
2023/09/12 12:58:31;;;;;;;8.07;4.60;;;;;;;;;;5032161;28;20056;-73
2023/09/12 13:00:56;;;;;;;7.90;4.53;;;;;;;;;;5023121;28;20025;-73
2023/09/12 13:03:22;;;;;;;14.67;4.73;;;;;;;;;;5025878;28;20060;-73
2023/09/12 13:05:47;;;;;;;7.73;4.90;;;;;;;;;;5019636;28;20335;-73
2023/09/12 13:08:12;;;;;;;7.13;4.63;;;;;;;;;;5024740;28;20021;-73
2023/09/12 13:10:37;;;;;;;7.97;4.20;;;;;;;;;;5032858;28;20075;-73
2023/09/12 13:13:04;;;;;;;8.57;4.95;;;;;;;;;;5026532;28;20064;-73
2023/09/12 13:15:29;;;;;;;7.90;4.97;;;;;;;;;;5029628;28;20029;-73
2023/09/12 13:17:54;;;;;;;8.45;4.47;;;;;;;;;;5027260;28;20108;-73
2023/09/12 13:20:19;;;;;;;8.77;4.60;;;;;;;;;;5029161;28;20022;-73
2023/09/12 13:22:44;;;;;;;13.07;4.65;;;;;;;;;;5028483;28;20488;-73
2023/09/12 13:25:10;;;;;;;7.72;4.47;;;;;;;;;;5032489;28;20238;-73
2023/09/12 13:27:35;;;;;;;6.65;4.32;;;;;;;;;;5030255;28;20025;-74
2023/09/12 13:30:00;;;;;;;7.97;4.20;;;;;;;;;;5032733;28;20577;-74
2023/09/12 13:32:25;;;;;;;5.13;3.97;;;;;;;;;;5027229;28;20029;-74
2023/09/12 13:34:50;;;;;;;5.53;3.80;;;;;;;;;;5033386;28;20112;-74
2023/09/12 13:37:16;;;;;;;11.27;4.47;;;;;;;;;;5028974;28;20306;-74
2023/09/12 13:39:47;;;;;;;8.55;4.63;;;;;;;;;;5028525;28;20462;-74
2023/09/12 13:42:14;;;;;;;7.00;4.15;;;;;;;;;;5021681;28;20025;-74
2023/09/12 13:44:39;;;;;;;7.85;4.70;;;;;;;;;;5030953;28;20020;-74
2023/09/12 13:47:04;;;;;;;6.78;4.47;;;;;;;;;;5029499;28;20025;-74
2023/09/12 13:49:29;;;;;;;7.00;4.57;;;;;;;;;;5027643;28;20040;-74
2023/09/12 13:51:55;;;;;;;10.03;4.57;;;;;;;;;;5028343;28;20267;-74
2023/09/12 13:54:20;;;;;;;10.93;5.07;;;;;;;;;;5024278;28;20546;-74
2023/09/12 13:56:45;;;;;;;8.40;4.80;;;;;;;;;;5026729;28;20034;-74
2023/09/12 13:59:11;;;;;;;8.70;4.23;;;;;;;;;;5033986;28;20024;-74
2023/09/12 14:01:36;;;;;;;7.55;4.20;;;;;;;;;;5027693;28;20021;-74
2023/09/12 14:04:04;;;;;;;7.73;3.93;;;;;;;;;;5026773;28;20152;-74
2023/09/12 14:06:30;;;;;;;13.07;5.05;;;;;;;;;;5029088;28;20279;-74
2023/09/12 14:08:55;;;;;;;7.75;4.93;;;;;;;;;;5024947;28;20029;-74
2023/09/12 14:11:20;;;;;;;7.13;4.63;;;;;;;;;;5027250;28;20029;-74
2023/09/12 14:13:45;;;;;;;6.43;4.33;;;;;;;;;;5030916;28;20311;-74
2023/09/12 14:16:11;;;;;;;6.90;4.10;;;;;;;;;;5032234;28;20272;-74
2023/09/12 14:18:37;;;;;;;10.90;5.30;;;;;;;;;;5030459;28;20068;-74
2023/09/12 14:21:02;;;;;;;8.07;3.90;;;;;;;;;;5032648;28;20334;-74
2023/09/12 14:23:27;;;;;;;7.50;4.75;;;;;;;;;;5023931;28;20017;-74
2023/09/12 14:25:53;;;;;;;9.40;4.67;;;;;;;;;;5032607;28;20028;-74
2023/09/12 14:28:18;;;;;;;7.87;4.40;;;;;;;;;;5026476;28;20053;-74
2023/09/12 14:30:45;;;;;;;11.90;4.27;;;;;;;;;;5029846;28;20500;-74